Terminal Aerodrome Forecast
Issued by NWS

Home | Current Version | Previous Version | Graphics & Text | Print | Product List | Glossary On
Versions: 1 2 3 4 5 6 7 8 9 10 11 12 13 14 15 16 17 18 19 20
000
FTUS43 KGRB 241726
TAFRHI
TAF
KRHI 241726Z 2418/2518 02006KT 6SM -RA OVC007
     FM242100 04007KT P6SM OVC008
     FM250700 05006KT P6SM BKN010
     FM251700 08009KT P6SM BKN015=

USA.gov is the U.S. government's official web portal to all federal, state and local government web resources and services.